Time;durP1;ratioP1;P1;durP2;ratioP2;P2;SDS_P1;SDS_P2;PMS_P1;PMS_P2;Temp;Humidity;BMP_temperature;BMP_pressure;BME280_temperature;BME280_humidity;BME280_pressure;Samples;Min_cycle;Max_cycle;Signal;HPM_P1;HPM_P2
2021/05/03 00:01:09;;;;;;;12.55;3.00;;;;;;;18.10;59.20;100316.00;1794091;79;25592;-58
2021/05/03 00:03:37;;;;;;;17.10;3.70;;;;;;;18.07;59.03;100309.58;1794123;79;25859;-58
2021/05/03 00:06:05;;;;;;;18.90;3.70;;;;;;;18.07;58.90;100304.14;1790534;79;25798;-58
2021/05/03 00:08:32;;;;;;;12.75;3.70;;;;;;;18.06;59.16;100297.01;1785357;80;27583;-58
2021/05/03 00:11:00;;;;;;;15.63;3.45;;;;;;;18.08;59.08;100295.77;1785115;80;25717;-58
2021/05/03 00:13:29;;;;;;;10.03;3.10;;;;;;;18.07;59.38;100299.52;1785336;80;25661;-58
2021/05/03 00:15:57;;;;;;;17.52;4.87;;;;;;;18.05;59.36;100295.31;1785293;80;25845;-58
2021/05/03 00:18:25;;;;;;;11.30;3.85;;;;;;;18.06;59.31;100289.70;1785434;80;25666;-58
2021/05/03 00:20:53;;;;;;;14.68;3.55;;;;;;;18.07;59.39;100294.61;1785158;80;27544;-58
2021/05/03 00:23:21;;;;;;;25.72;5.20;;;;;;;18.04;59.99;100303.16;1785310;80;26083;-58
2021/05/03 00:25:49;;;;;;;14.18;2.77;;;;;;;17.94;59.78;100315.19;1785155;80;25792;-59
2021/05/03 00:28:17;;;;;;;16.23;3.15;;;;;;;17.94;60.34;100318.44;1785408;80;26858;-58
2021/05/03 00:30:45;;;;;;;17.40;3.25;;;;;;;17.92;60.71;100320.52;1785113;80;25695;-59
2021/05/03 00:33:13;;;;;;;12.65;3.30;;;;;;;17.93;61.47;100323.56;1785213;80;28272;-59
2021/05/03 00:35:41;;;;;;;19.57;3.30;;;;;;;17.91;61.48;100313.38;1785312;80;25729;-59
2021/05/03 00:38:09;;;;;;;9.63;3.17;;;;;;;17.93;61.36;100321.67;1785347;80;25839;-59
2021/05/03 00:40:37;;;;;;;15.28;3.27;;;;;;;17.95;61.47;100320.13;1785267;80;26541;-58
2021/05/03 00:43:05;;;;;;;17.02;3.17;;;;;;;18.01;61.43;100319.91;1785373;80;25652;-59
2021/05/03 00:45:34;;;;;;;14.98;2.77;;;;;;;18.04;61.95;100309.46;1785250;80;27589;-59
2021/05/03 00:48:04;;;;;;;15.03;2.77;;;;;;;17.96;61.33;100320.49;1755052;80;26254;-59
2021/05/03 00:50:32;;;;;;;16.17;3.05;;;;;;;17.96;61.72;100341.73;1787832;79;25634;-59
2021/05/03 00:53:00;;;;;;;16.35;2.65;;;;;;;17.98;61.70;100336.08;1788393;78;25866;-58
2021/05/03 00:55:28;;;;;;;10.20;3.45;;;;;;;17.98;62.02;100345.11;1804161;78;25690;-59
2021/05/03 00:57:56;;;;;;;15.65;2.92;;;;;;;17.94;62.27;100334.23;1819423;77;27527;-59
2021/05/03 01:00:27;;;;;;;15.00;2.95;;;;;;;17.91;61.88;100331.07;1788347;79;25670;-59
2021/05/03 01:02:55;;;;;;;18.10;3.10;;;;;;;17.93;61.96;100335.81;1788409;80;25639;-59
2021/05/03 01:05:27;;;;;;;10.10;2.52;;;;;;;17.95;61.89;100333.73;1784041;80;25874;-59
2021/05/03 01:07:54;;;;;;;12.70;2.50;;;;;;;17.97;61.82;100337.14;1755539;81;25724;-59
2021/05/03 01:10:23;;;;;;;12.35;2.77;;;;;;;17.94;62.93;100340.22;1788243;80;27531;-59
2021/05/03 01:12:52;;;;;;;11.43;3.15;;;;;;;17.79;62.27;100337.06;1788208;80;25687;-59
2021/05/03 01:15:23;;;;;;;11.75;2.60;;;;;;;17.63;62.40;100334.06;1788430;80;25718;-58
2021/05/03 01:18:01;;;;;;;9.08;2.10;;;;;;;17.55;64.36;100338.77;1788424;80;25914;-59
2021/05/03 01:20:33;;;;;;;8.53;2.50;;;;;;;17.35;63.66;100345.69;1788399;80;25694;-59
2021/05/03 01:23:05;;;;;;;10.53;2.58;;;;;;;17.20;64.85;100328.05;1788113;78;55257;-59
2021/05/03 01:25:38;;;;;;;14.90;2.20;;;;;;;17.13;63.97;100323.55;1788358;80;25661;-59
2021/05/03 01:28:08;;;;;;;11.63;2.45;;;;;;;17.12;64.72;100324.61;1788525;80;25771;-59
2021/05/03 01:30:42;;;;;;;12.23;2.25;;;;;;;17.10;64.20;100322.06;1818977;78;25862;-59
2021/05/03 01:33:14;;;;;;;10.35;2.62;;;;;;;17.09;64.49;100317.66;1788341;79;25778;-58
2021/05/03 01:35:45;;;;;;;13.28;2.17;;;;;;;17.14;64.95;100319.80;1820872;77;27532;-59
2021/05/03 01:38:14;;;;;;;16.05;2.42;;;;;;;17.17;64.61;100314.83;1820639;78;26077;-59
2021/05/03 01:40:45;;;;;;;14.47;2.33;;;;;;;17.20;64.75;100315.81;1820778;78;25724;-59
2021/05/03 01:43:25;;;;;;;19.92;2.83;;;;;;;17.23;64.74;100315.11;1820816;78;25856;-58
2021/05/03 01:45:56;;;;;;;12.45;2.37;;;;;;;17.25;64.21;100319.84;1820723;78;25519;-59
2021/05/03 01:48:28;;;;;;;12.63;2.02;;;;;;;17.28;63.84;100328.45;1820682;78;28469;-59
2021/05/03 01:50:58;;;;;;;7.30;1.80;;;;;;;17.30;63.27;100341.85;1761465;78;25937;-59
2021/05/03 01:53:27;;;;;;;5.62;1.75;;;;;;;17.28;62.95;100337.11;1727639;81;25663;-59
2021/05/03 01:55:57;;;;;;;10.55;1.70;;;;;;;17.29;62.76;100336.95;1757075;80;26767;-59
2021/05/03 01:58:26;;;;;;;13.98;2.00;;;;;;;17.29;60.70;100349.67;1776752;79;25745;-59
2021/05/03 02:00:57;;;;;;;7.35;1.80;;;;;;;17.30;57.16;100358.98;1776549;80;27528;-59
2021/05/03 02:03:27;;;;;;;13.53;2.08;;;;;;;17.39;57.06;100371.14;1776752;80;25842;-59
2021/05/03 02:05:56;;;;;;;17.05;2.50;;;;;;;17.46;56.45;100386.48;1768513;80;25804;-59
2021/05/03 02:08:24;;;;;;;15.70;1.57;;;;;;;17.44;55.93;100380.38;1750052;81;25859;-59
2021/05/03 02:10:54;;;;;;;13.65;2.17;;;;;;;17.41;55.64;100386.23;1750097;81;25723;-58
2021/05/03 02:13:24;;;;;;;9.35;1.80;;;;;;;17.34;55.63;100391.57;1750374;81;27607;-59
2021/05/03 02:15:52;;;;;;;7.28;1.98;;;;;;;17.27;55.68;100397.95;1750269;81;25457;-59
2021/05/03 02:18:21;;;;;;;7.95;1.67;;;;;;;17.18;55.56;100398.05;1750360;81;25733;-58
2021/05/03 02:20:49;;;;;;;13.03;1.85;;;;;;;17.08;55.67;100391.23;1750180;81;26776;-59
2021/05/03 02:23:17;;;;;;;5.20;2.20;;;;;;;16.97;55.88;100397.46;1750391;81;25492;-59
2021/05/03 02:25:46;;;;;;;9.90;2.20;;;;;;;16.83;55.20;100396.39;1750355;81;26718;-59
2021/05/03 02:28:14;;;;;;;7.08;2.17;;;;;;;16.71;55.16;100394.66;1750138;81;25623;-59
2021/05/03 02:30:42;;;;;;;6.53;2.10;;;;;;;16.58;55.12;100406.69;1750299;81;25876;-59
2021/05/03 02:33:11;;;;;;;10.98;3.08;;;;;;;16.46;55.46;100416.30;1750239;81;25861;-58
2021/05/03 02:35:39;;;;;;;6.90;2.30;;;;;;;16.32;55.55;100436.95;1750282;81;25778;-59
2021/05/03 02:38:09;;;;;;;7.08;2.98;;;;;;;16.18;55.51;100443.48;1750283;81;28435;-59
2021/05/03 02:40:38;;;;;;;4.83;2.10;;;;;;;16.02;55.96;100463.45;1747021;81;25734;-59
2021/05/03 02:43:06;;;;;;;4.67;2.10;;;;;;;15.91;56.31;100495.05;1749314;81;25757;-59
2021/05/03 02:45:36;;;;;;;7.08;2.90;;;;;;;15.81;56.42;100502.03;1755807;81;26744;-58
2021/05/03 02:48:05;;;;;;;3.05;2.40;;;;;;;15.75;56.69;100503.58;1750302;81;25714;-58
2021/05/03 02:50:33;;;;;;;8.93;2.25;;;;;;;15.63;56.60;100515.34;1740025;80;27602;-59
2021/05/03 02:53:01;;;;;;;11.43;3.00;;;;;;;15.55;56.48;100514.51;1728057;83;25587;-59
2021/05/03 02:55:30;;;;;;;3.80;2.10;;;;;;;15.36;56.45;100534.74;1727862;83;25626;-58
2021/05/03 02:57:59;;;;;;;4.80;2.20;;;;;;;15.27;56.61;100548.80;1727525;83;25924;-59
2021/05/03 03:00:32;;;;;;;6.67;2.62;;;;;;;15.25;56.67;100572.52;1727640;83;26178;-58
2021/05/03 03:03:01;;;;;;;3.70;2.22;;;;;;;15.23;56.66;100575.41;1727833;83;27612;-59
2021/05/03 03:05:30;;;;;;;3.47;2.30;;;;;;;15.23;56.58;100587.60;1727560;81;25510;-59
2021/05/03 03:08:01;;;;;;;10.78;2.02;;;;;;;15.28;56.36;100599.28;1727961;81;25671;-59
2021/05/03 03:10:30;;;;;;;6.85;2.12;;;;;;;15.25;55.66;100608.61;1727957;83;25732;-59
2021/05/03 03:13:02;;;;;;;8.48;2.17;;;;;;;15.21;55.22;100612.66;1728235;82;25780;-59
2021/05/03 03:15:32;;;;;;;6.97;2.33;;;;;;;15.20;54.89;100619.09;1727974;82;27537;-57
2021/05/03 03:18:02;;;;;;;4.75;1.82;;;;;;;15.16;54.18;100628.08;1727976;82;25723;-58
2021/05/03 03:20:32;;;;;;;5.22;1.98;;;;;;;15.05;53.91;100635.21;1727952;81;25583;-58
2021/05/03 03:23:02;;;;;;;3.62;1.98;;;;;;;14.89;53.67;100646.00;1727915;81;26664;-58
2021/05/03 03:25:30;;;;;;;2.85;2.17;;;;;;;14.81;53.43;100641.45;1728197;81;25741;-58
2021/05/03 03:27:59;;;;;;;2.40;1.75;;;;;;;14.72;53.51;100643.28;1728093;82;27534;-58
2021/05/03 03:30:27;;;;;;;6.85;2.20;;;;;;;14.69;53.49;100650.41;1728056;82;25763;-59
2021/05/03 03:32:55;;;;;;;2.22;1.95;;;;;;;14.65;53.63;100639.52;1728089;82;25779;-59
2021/05/03 03:35:24;;;;;;;2.25;1.65;;;;;;;14.67;53.73;100654.61;1728166;81;26819;-58
2021/05/03 03:37:53;;;;;;;4.60;1.87;;;;;;;14.65;53.73;100672.01;1728226;82;26257;-58
2021/05/03 03:40:22;;;;;;;5.65;2.35;;;;;;;14.67;53.87;100683.56;1728069;83;27539;-59
2021/05/03 03:42:50;;;;;;;3.72;1.85;;;;;;;14.63;53.81;100694.33;1727726;82;25695;-58
2021/05/03 03:45:18;;;;;;;6.03;1.77;;;;;;;14.66;53.94;100705.70;1728042;83;26512;-58
2021/05/03 03:47:46;;;;;;;3.08;2.12;;;;;;;14.72;53.90;100713.68;1728061;83;25857;-58
2021/05/03 03:50:14;;;;;;;4.37;1.92;;;;;;;14.67;53.45;100723.65;1735827;81;25993;-58
2021/05/03 03:52:44;;;;;;;2.80;1.70;;;;;;;14.61;52.98;100709.39;1774957;79;28917;-58
2021/05/03 03:55:13;;;;;;;2.72;1.80;;;;;;;14.40;52.93;100709.31;1757978;81;25734;-58
2021/05/03 03:57:41;;;;;;;3.35;1.98;;;;;;;14.17;52.98;100726.62;1755805;80;25699;-58
2021/05/03 04:00:10;;;;;;;1.75;1.60;;;;;;;14.08;53.52;100717.63;1755850;81;25936;-58
2021/05/03 04:02:39;;;;;;;7.87;2.20;;;;;;;14.12;53.63;100718.67;1755799;81;25755;-58
2021/05/03 04:10:30;;;;;;;4.05;2.20;;;;;;;14.16;53.82;100721.37;1744056;81;25655;-59
2021/05/03 04:21:08;;;;;;;2.60;1.80;;;;;;;14.32;53.31;100722.81;1742357;82;25684;-58
2021/05/03 04:26:19;;;;;;;4.40;1.72;;;;;;;14.15;52.89;100734.56;1744297;82;25862;-58
2021/05/03 04:28:50;;;;;;;5.25;1.60;;;;;;;14.18;53.54;100732.90;1744059;80;25768;-59
2021/05/03 04:31:20;;;;;;;3.35;1.62;;;;;;;14.22;52.58;100729.70;1774860;80;27519;-59
2021/05/03 04:33:49;;;;;;;2.90;1.82;;;;;;;14.33;52.07;100742.09;1774719;80;25440;-59
2021/05/03 04:36:18;;;;;;;1.57;1.27;;;;;;;14.32;51.31;100748.52;1774907;80;25688;-58
2021/05/03 04:38:47;;;;;;;1.75;1.20;;;;;;;14.37;50.46;100739.42;1774946;80;25921;-59
2021/05/03 04:41:16;;;;;;;1.77;1.30;;;;;;;14.30;49.91;100733.45;1774888;80;25599;-58
2021/05/03 04:43:44;;;;;;;2.08;1.47;;;;;;;14.35;49.95;100738.73;1774911;80;27529;-57
2021/05/03 04:46:12;;;;;;;2.55;1.30;;;;;;;14.45;50.05;100722.88;1774678;80;25579;-58
2021/05/03 04:48:40;;;;;;;1.77;1.30;;;;;;;14.60;49.66;100729.88;1774791;80;25725;-58
2021/05/03 04:51:08;;;;;;;2.02;1.40;;;;;;;14.66;48.69;100758.98;1770582;79;25865;-58
2021/05/03 04:53:36;;;;;;;3.92;0.95;;;;;;;14.60;48.50;100779.95;1766710;80;25850;-58
2021/05/03 04:56:05;;;;;;;1.65;1.22;;;;;;;14.52;48.65;100770.77;1765974;79;27515;-59
2021/05/03 04:58:33;;;;;;;2.75;1.40;;;;;;;14.38;48.15;100769.55;1798006;79;25864;-59
2021/05/03 05:01:03;;;;;;;1.52;1.07;;;;;;;14.38;48.74;100767.33;1798357;78;25628;-58
2021/05/03 05:03:31;;;;;;;5.45;1.50;;;;;;;14.31;47.81;100761.70;1798121;79;25871;-59
2021/05/03 05:05:58;;;;;;;2.17;1.02;;;;;;;14.15;48.29;100780.55;1798261;79;25742;-59
2021/05/03 05:08:27;;;;;;;2.15;1.47;;;;;;;14.03;48.36;100798.39;1798069;79;29343;-59
2021/05/03 05:10:55;;;;;;;9.58;1.50;;;;;;;13.93;48.61;100803.07;1798062;79;25811;-59
2021/05/03 05:13:23;;;;;;;2.17;1.12;;;;;;;13.90;48.95;100809.62;1798195;79;25653;-59
2021/05/03 05:15:51;;;;;;;3.05;1.55;;;;;;;13.91;48.77;100803.73;1798311;79;26073;-59
2021/05/03 05:18:21;;;;;;;4.05;1.40;;;;;;;13.89;48.67;100794.91;1798245;79;25531;-59
2021/05/03 05:20:49;;;;;;;2.70;1.67;;;;;;;14.01;48.56;100791.44;1766411;80;27538;-59
2021/05/03 05:23:17;;;;;;;1.92;1.35;;;;;;;14.08;48.70;100806.89;1766679;81;25700;-59
2021/05/03 05:25:45;;;;;;;2.02;1.45;;;;;;;14.18;48.58;100809.48;1766716;80;25700;-59
2021/05/03 05:28:13;;;;;;;5.42;1.30;;;;;;;14.17;48.61;100809.66;1766603;80;25855;-59
2021/05/03 05:30:41;;;;;;;3.92;1.40;;;;;;;14.24;48.94;100814.77;1766668;80;25696;-59
2021/05/03 05:33:09;;;;;;;4.97;1.62;;;;;;;14.29;49.01;100827.81;1766534;80;27527;-58
2021/05/03 05:35:37;;;;;;;5.78;2.95;;;;;;;14.39;48.79;100810.45;1766444;81;25649;-58
2021/05/03 05:38:05;;;;;;;2.77;1.90;;;;;;;14.37;48.25;100838.20;1766425;80;25668;-59
2021/05/03 05:40:33;;;;;;;2.40;1.70;;;;;;;14.34;48.70;100832.27;1766745;80;25930;-59
2021/05/03 05:43:06;;;;;;;4.87;1.50;;;;;;;14.29;48.79;100836.80;1766434;80;26075;-59
2021/05/03 05:45:34;;;;;;;3.37;1.50;;;;;;;14.21;48.92;100853.82;1766315;80;27493;-59
2021/05/03 05:48:04;;;;;;;7.37;1.90;;;;;;;14.02;48.62;100856.22;1766544;80;25647;-59
2021/05/03 05:50:32;;;;;;;6.28;1.70;;;;;;;13.91;49.95;100854.59;1768509;80;25494;-58
2021/05/03 05:53:02;;;;;;;5.65;1.45;;;;;;;13.75;50.08;100881.48;1820623;78;25836;-59
2021/05/03 05:55:30;;;;;;;3.37;1.50;;;;;;;13.49;50.63;100893.58;1805035;78;26103;-58
2021/05/03 05:57:58;;;;;;;2.45;1.62;;;;;;;13.38;51.22;100894.58;1847111;77;27616;-59
2021/05/03 06:00:26;;;;;;;3.33;1.92;;;;;;;13.27;51.33;100872.69;1849580;77;25630;-59
2021/05/03 06:02:54;;;;;;;3.05;1.98;;;;;;;13.23;51.68;100878.03;1821499;78;25719;-58
2021/05/03 06:05:23;;;;;;;2.05;1.45;;;;;;;13.17;51.92;100869.19;1816320;78;25859;-59
2021/05/03 06:07:52;;;;;;;6.22;1.65;;;;;;;13.24;52.01;100867.58;1788478;78;25749;-59
2021/05/03 06:10:20;;;;;;;2.98;1.52;;;;;;;13.38;52.54;100864.86;1782253;80;27032;-57
2021/05/03 06:12:48;;;;;;;3.27;1.55;;;;;;;13.51;52.79;100870.80;1796040;79;25738;-57
2021/05/03 06:15:16;;;;;;;2.95;1.35;;;;;;;13.57;51.74;100864.77;1796110;79;25687;-58
2021/05/03 06:17:44;;;;;;;1.52;1.07;;;;;;;13.58;51.13;100869.69;1796133;79;25798;-58
2021/05/03 06:20:13;;;;;;;4.15;1.67;;;;;;;13.61;51.45;100868.88;1796115;79;26358;-57
2021/05/03 06:22:41;;;;;;;3.08;1.52;;;;;;;13.64;50.61;100869.06;1796001;79;27522;-58
2021/05/03 06:25:11;;;;;;;2.30;1.35;;;;;;;13.68;50.14;100873.66;1796083;79;25674;-58
2021/05/03 06:27:39;;;;;;;3.87;1.40;;;;;;;13.65;49.12;100883.41;1795994;79;25743;-57
2021/05/03 06:30:10;;;;;;;2.67;1.45;;;;;;;13.63;49.06;100885.44;1796159;79;25859;-58
2021/05/03 06:32:37;;;;;;;2.35;1.30;;;;;;;13.58;48.78;100885.39;1796125;79;25602;-58
2021/05/03 06:35:08;;;;;;;5.87;1.60;;;;;;;13.66;48.99;100868.89;1795974;79;27972;-58
2021/05/03 06:37:35;;;;;;;4.15;2.87;;;;;;;13.71;49.27;100860.67;1795932;79;25743;-58
2021/05/03 06:40:05;;;;;;;2.37;1.20;;;;;;;13.82;49.44;100869.56;1796093;79;25642;-58
2021/05/03 06:42:34;;;;;;;2.25;1.40;;;;;;;13.87;48.67;100880.75;1795742;79;25859;-58
2021/05/03 06:45:04;;;;;;;4.58;1.62;;;;;;;13.83;48.58;100881.56;1796005;79;25704;-58
2021/05/03 06:47:33;;;;;;;2.30;1.37;;;;;;;13.82;48.67;100892.03;1795782;79;27534;-57
2021/05/03 06:50:01;;;;;;;2.27;1.20;;;;;;;13.77;48.94;100908.71;1792514;79;25669;-58
2021/05/03 06:52:29;;;;;;;3.67;1.70;;;;;;;13.85;49.95;100911.17;1762718;79;25725;-58
2021/05/03 06:54:58;;;;;;;6.10;1.45;;;;;;;13.96;49.43;100912.78;1745082;81;25859;-58
2021/05/03 06:57:26;;;;;;;4.08;1.20;;;;;;;14.05;49.56;100922.16;1745068;82;25689;-58
2021/05/03 06:59:54;;;;;;;5.35;1.72;;;;;;;14.07;48.85;100939.09;1766875;80;28604;-58
2021/05/03 07:02:24;;;;;;;5.10;1.87;;;;;;;14.15;48.95;100930.70;1727923;83;25650;-58
2021/05/03 07:04:52;;;;;;;3.15;1.40;;;;;;;14.24;48.39;100918.94;1766751;81;26023;-58
2021/05/03 07:07:22;;;;;;;1.47;1.35;;;;;;;14.40;47.65;100916.87;1755164;81;25860;-58
2021/05/03 07:09:50;;;;;;;4.30;1.20;;;;;;;14.50;47.03;100902.73;1755019;81;25653;-58
2021/05/03 07:12:21;;;;;;;2.05;1.42;;;;;;;14.49;46.56;100915.92;1755151;81;27532;-58
2021/05/03 07:14:50;;;;;;;3.02;1.25;;;;;;;14.51;46.50;100930.16;1754837;80;25702;-58
2021/05/03 07:17:18;;;;;;;2.75;1.30;;;;;;;14.59;46.56;100935.28;1755042;81;25699;-58
2021/05/03 07:19:47;;;;;;;3.33;1.20;;;;;;;14.69;46.72;100926.58;1754940;81;25852;-58
2021/05/03 07:22:15;;;;;;;2.00;1.00;;;;;;;14.84;46.16;100929.52;1755002;80;26462;-58
2021/05/03 07:24:44;;;;;;;2.52;1.20;;;;;;;14.92;46.11;100927.38;1755185;81;27530;-57
2021/05/03 07:27:12;;;;;;;3.55;1.42;;;;;;;15.03;45.47;100928.45;1755006;81;25801;-57
2021/05/03 07:29:42;;;;;;;4.30;1.32;;;;;;;14.98;46.06;100936.20;1755177;81;25714;-58
2021/05/03 07:32:10;;;;;;;4.05;1.32;;;;;;;15.06;45.92;100938.12;1754759;81;27189;-57
2021/05/03 07:34:42;;;;;;;11.88;2.17;;;;;;;15.20;45.16;100929.36;1755000;81;26492;-59
2021/05/03 07:37:10;;;;;;;1.75;1.15;;;;;;;15.18;44.00;100930.89;1754878;81;27555;-58
2021/05/03 07:39:39;;;;;;;6.10;2.17;;;;;;;14.98;45.15;100936.20;1754915;81;25772;-58
2021/05/03 07:42:07;;;;;;;3.15;1.60;;;;;;;14.94;45.65;100941.09;1721507;81;25721;-58
2021/05/03 07:44:42;;;;;;;1.65;1.40;;;;;;;14.95;45.94;100952.28;1749827;81;25874;-61
2021/05/03 07:47:15;;;;;;;3.85;1.62;;;;;;;14.99;46.20;100956.38;1754994;81;27625;-61
2021/05/03 07:49:44;;;;;;;;;;;;;;;15.00;45.49;100949.95;1761567;80;28173;-58
2021/05/03 07:52:12;;;;;;;2.22;1.57;;;;;;;14.91;45.68;100948.20;1780656;80;25937;-58
2021/05/03 07:54:41;;;;;;;4.87;1.80;;;;;;;14.89;45.76;100939.39;1773318;80;25671;-58
2021/05/03 07:57:10;;;;;;;2.22;1.57;;;;;;;14.90;46.21;100941.58;1757654;81;25860;-58
2021/05/03 07:59:38;;;;;;;2.85;2.00;;;;;;;14.95;46.54;100941.45;1779616;80;26322;-58
2021/05/03 08:02:05;;;;;;;3.85;1.62;;;;;;;14.97;46.41;100931.30;1740467;82;28210;-59
2021/05/03 08:04:35;;;;;;;4.47;1.35;;;;;;;15.00;46.24;100930.12;1779473;80;26108;-59
2021/05/03 08:07:03;;;;;;;6.53;1.60;;;;;;;15.08;45.70;100932.04;1770773;80;26443;-59
2021/05/03 08:09:31;;;;;;;2.85;1.60;;;;;;;15.18;45.70;100920.58;1779135;80;25858;-58
2021/05/03 08:12:00;;;;;;;6.25;1.62;;;;;;;15.22;45.92;100916.51;1811598;79;25417;-61
2021/05/03 08:14:37;;;;;;;2.42;1.67;;;;;;;15.30;45.46;100914.34;1779388;80;27525;-60
2021/05/03 08:17:07;;;;;;;5.10;1.90;;;;;;;15.36;45.12;100900.12;1779468;80;25687;-58
2021/05/03 08:19:36;;;;;;;5.53;1.90;;;;;;;15.40;46.13;100911.48;1779592;80;25438;-58
2021/05/03 08:22:04;;;;;;;2.77;2.00;;;;;;;15.51;45.46;100912.55;1779501;80;25851;-58
2021/05/03 08:24:35;;;;;;;5.15;1.80;;;;;;;15.55;45.66;100913.06;1779635;80;25438;-58
2021/05/03 08:27:06;;;;;;;3.98;1.60;;;;;;;15.65;45.41;100901.05;1779610;80;27522;-59
2021/05/03 08:29:36;;;;;;;1.85;1.20;;;;;;;15.77;45.35;100909.73;1779452;80;25832;-59
2021/05/03 08:32:05;;;;;;;3.60;2.12;;;;;;;15.84;45.08;100922.65;1779549;80;25820;-59
2021/05/03 08:34:34;;;;;;;2.67;1.75;;;;;;;15.94;45.28;100915.20;1779444;80;25896;-59
2021/05/03 08:37:02;;;;;;;8.50;1.90;;;;;;;16.09;45.46;100912.68;1779600;80;25628;-59
2021/05/03 08:39:30;;;;;;;5.25;1.57;;;;;;;16.34;45.11;100913.50;1779472;80;27517;-59
2021/05/03 08:41:59;;;;;;;2.95;2.10;;;;;;;16.64;43.92;100911.59;1779317;80;25420;-59
2021/05/03 08:44:29;;;;;;;5.65;1.85;;;;;;;16.87;43.90;100903.06;1779522;80;25683;-59
2021/05/03 08:46:58;;;;;;;6.90;1.95;;;;;;;17.18;43.84;100902.28;1779154;80;25860;-59
2021/05/03 08:54:44;;;;;;;4.95;1.77;;;;;;;17.97;41.42;100908.14;1754847;80;25824;-59
2021/05/03 08:57:15;;;;;;;11.25;1.65;;;;;;;18.29;41.92;100891.19;1806558;79;25769;-59
2021/05/03 08:59:44;;;;;;;11.93;1.60;;;;;;;18.50;39.65;100900.53;1806620;78;26797;-59
2021/05/03 09:02:15;;;;;;;4.33;1.75;;;;;;;18.64;39.27;100893.95;1806581;78;25720;-59
2021/05/03 09:04:45;;;;;;;11.22;1.62;;;;;;;18.81;39.55;100900.05;1806881;78;27505;-59
2021/05/03 09:07:15;;;;;;;1.95;1.52;;;;;;;19.00;38.36;100904.97;1776319;78;25629;-59
2021/05/03 09:09:53;;;;;;;3.27;2.00;;;;;;;19.05;38.28;100908.48;1770743;81;25681;-59
2021/05/03 09:12:25;;;;;;;3.65;1.90;;;;;;;19.12;38.45;100901.77;1770951;80;25861;-60
2021/05/03 09:15:02;;;;;;;1.98;1.45;;;;;;;19.22;37.30;100894.98;1771083;80;26112;-59
2021/05/03 09:17:36;;;;;;;3.65;1.72;;;;;;;19.34;37.67;100907.60;1770092;81;27538;-59
2021/05/03 09:20:16;;;;;;;14.93;2.00;;;;;;;19.63;38.07;100903.65;1770959;80;26058;-59
2021/05/03 09:22:58;;;;;;;6.45;2.17;;;;;;;20.10;36.60;100906.88;1770794;80;25728;-59
2021/05/03 09:25:42;;;;;;;10.08;1.82;;;;;;;20.52;36.01;100903.74;1771019;80;25916;-59
2021/05/03 09:28:15;;;;;;;5.60;1.87;;;;;;;20.60;35.49;100902.22;1770993;80;25777;-60
2021/05/03 09:30:57;;;;;;;22.65;3.35;;;;;;;21.11;35.42;100898.89;1771029;80;28490;-59
2021/05/03 09:33:34;;;;;;;4.62;1.72;;;;;;;21.80;32.65;100900.28;1770731;80;25694;-59
2021/05/03 09:36:09;;;;;;;4.30;1.95;;;;;;;22.23;32.88;100906.78;1770920;81;25667;-59
2021/05/03 09:38:49;;;;;;;6.85;1.50;;;;;;;22.65;32.79;100905.17;1770862;80;25863;-59
2021/05/03 09:41:27;;;;;;;5.10;1.70;;;;;;;23.20;30.89;100910.35;1770971;80;25725;-60
2021/05/03 09:44:02;;;;;;;6.53;1.62;;;;;;;23.70;29.56;100890.47;1771075;81;27615;-59
2021/05/03 09:46:40;;;;;;;15.55;2.10;;;;;;;24.09;27.95;100896.45;1770606;80;26589;-59
2021/05/03 09:49:18;;;;;;;5.10;1.27;;;;;;;24.27;27.04;100902.01;1770526;80;26316;-59
2021/05/03 09:51:57;;;;;;;6.05;1.45;;;;;;;24.52;28.22;100894.27;1754922;80;25950;-60
2021/05/03 09:54:27;;;;;;;5.47;2.33;;;;;;;25.07;26.10;100890.77;1766935;81;26098;-59
2021/05/03 09:57:05;;;;;;;13.40;1.82;;;;;;;24.96;25.56;100888.26;1779421;80;27604;-59
2021/05/03 09:59:49;;;;;;;8.30;1.80;;;;;;;24.82;25.65;100893.59;1779286;80;25665;-60
2021/05/03 10:02:30;;;;;;;5.42;1.77;;;;;;;24.87;25.50;100897.89;1779532;80;25779;-59
2021/05/03 10:05:09;;;;;;;6.70;1.42;;;;;;;25.21;25.69;100889.21;1779520;80;26758;-59
2021/05/03 10:07:38;;;;;;;8.63;1.60;;;;;;;25.62;24.82;100892.61;1748641;80;25655;-59
2021/05/03 10:10:21;;;;;;;3.90;1.70;;;;;;;25.96;22.89;100886.61;1748460;81;27514;-59
2021/05/03 10:12:49;;;;;;;2.90;1.72;;;;;;;26.07;23.34;100895.97;1748542;81;25708;-59
2021/05/03 10:15:19;;;;;;;4.47;1.30;;;;;;;26.48;22.74;100888.73;1754396;80;26072;-59
2021/05/03 10:17:48;;;;;;;3.60;1.35;;;;;;;26.74;21.58;100888.47;1779578;80;25642;-59
2021/05/03 10:20:21;;;;;;;2.62;1.25;;;;;;;26.45;21.26;100888.39;1779367;80;25767;-60
2021/05/03 10:22:55;;;;;;;9.78;1.22;;;;;;;26.34;21.68;100886.76;1779511;80;27545;-59
2021/05/03 10:25:24;;;;;;;2.22;1.17;;;;;;;26.85;22.40;100882.13;1779413;80;25306;-59
2021/05/03 10:27:53;;;;;;;3.05;0.98;;;;;;;27.08;21.73;100872.11;1779256;80;25655;-60
2021/05/03 10:30:24;;;;;;;6.12;1.57;;;;;;;26.99;22.16;100878.02;1779560;80;26758;-59
2021/05/03 10:33:05;;;;;;;5.65;1.25;;;;;;;27.23;21.91;100877.11;1779425;80;25745;-60
2021/05/03 10:35:41;;;;;;;6.72;1.20;;;;;;;27.29;21.90;100875.59;1779280;80;26798;-60
2021/05/03 10:38:39;;;;;;;5.53;1.30;;;;;;;27.59;21.04;100886.98;1782440;80;26071;-60
2021/05/03 10:41:33;;;;;;;7.28;1.90;;;;;;;28.01;20.52;100889.94;1776228;79;25757;-59
2021/05/03 10:44:23;;;;;;;9.68;2.02;;;;;;;28.35;20.27;100889.97;1779594;80;25853;-60
2021/05/03 10:46:59;;;;;;;5.37;1.50;;;;;;;28.62;19.42;100889.78;1778787;80;25689;-60
2021/05/03 10:49:43;;;;;;;42.45;3.08;;;;;;;28.81;19.32;100891.77;1779076;80;27526;-60
2021/05/03 10:52:14;;;;;;;3.35;1.27;;;;;;;28.70;19.07;100908.22;1779643;78;26366;-59
2021/05/03 10:54:46;;;;;;;11.60;1.57;;;;;;;28.54;19.91;100906.30;1755625;81;25719;-60
2021/05/03 10:57:22;;;;;;;13.18;1.45;;;;;;;28.68;19.87;100905.39;1788384;80;25866;-60
2021/05/03 10:59:55;;;;;;;9.55;1.50;;;;;;;28.15;19.67;100905.66;1788332;80;25678;-62
2021/05/03 11:02:36;;;;;;;9.80;1.73;;;;;;;28.01;19.46;100902.38;1788670;80;28425;-60
2021/05/03 11:05:27;;;;;;;5.47;2.00;;;;;;;28.43;19.65;100899.22;1787689;80;26110;-60
2021/05/03 11:08:10;;;;;;;17.42;2.20;;;;;;;28.95;18.73;100901.36;1783938;80;26320;-60
2021/05/03 11:10:58;;;;;;;8.08;1.40;;;;;;;28.57;18.82;100920.98;1783809;79;25894;-59
2021/05/03 11:13:49;;;;;;;4.45;1.32;;;;;;;28.26;18.30;100911.66;1784140;79;26068;-59
2021/05/03 11:16:50;;;;;;;10.80;1.45;;;;;;;27.71;19.56;100910.41;1783903;80;27514;-59
2021/05/03 11:20:10;;;;;;;7.30;1.52;;;;;;;27.80;19.72;100914.45;1776853;79;26092;-59
2021/05/03 11:23:03;;;;;;;28.73;2.25;;;;;;;28.41;19.81;100922.70;1766260;81;25678;-60
2021/05/03 11:25:28;;;;;;;5.08;1.20;;;;;;;29.28;18.16;100925.04;1765625;81;26060;-60
2021/05/03 11:30:44;;;;;;;8.00;1.27;;;;;;;29.84;16.93;100904.05;1766508;80;27534;-60
2021/05/03 11:35:55;;;;;;;5.35;1.20;;;;;;;29.22;17.18;100921.92;1766314;81;25682;-60
2021/05/03 11:46:31;;;;;;;6.95;1.00;;;;;;;29.47;17.48;100933.88;1766475;80;25747;-60
2021/05/03 11:49:14;;;;;;;4.03;0.85;;;;;;;30.14;17.10;100924.33;1797890;79;25736;-60
2021/05/03 11:51:58;;;;;;;4.47;1.00;;;;;;;30.44;16.85;100920.66;1762133;80;27251;-59
2021/05/03 11:54:37;;;;;;;4.58;1.10;;;;;;;30.69;16.50;100914.48;1759983;81;25730;-59
2021/05/03 11:57:20;;;;;;;5.20;0.70;;;;;;;30.88;16.34;100921.84;1797823;79;27525;-59
2021/05/03 11:59:51;;;;;;;;;;;;;;;31.07;15.48;100922.73;1800607;79;25886;-59
2021/05/03 12:02:24;;;;;;;4.40;1.15;;;;;;;31.12;15.46;100928.90;1798109;79;25754;-59
2021/05/03 12:04:53;;;;;;;2.72;0.75;;;;;;;31.52;15.59;100931.56;1798012;79;26803;-59
2021/05/03 12:07:29;;;;;;;1.62;0.88;;;;;;;31.79;14.55;100933.33;1742283;79;26707;-59
2021/05/03 12:10:11;;;;;;;6.72;1.50;;;;;;;31.32;14.77;100936.51;1745311;81;27636;-59
2021/05/03 12:12:49;;;;;;;8.65;1.35;;;;;;;30.78;15.25;100928.72;1766113;80;25921;-59
2021/05/03 12:15:27;;;;;;;5.30;1.00;;;;;;;30.51;16.34;100925.45;1766392;80;25664;-59
2021/05/03 12:18:00;;;;;;;4.85;1.10;;;;;;;31.01;16.16;100923.29;1770596;80;26805;-59